Time;durP1;ratioP1;P1;durP2;ratioP2;P2;SDS_P1;SDS_P2;PMS_P1;PMS_P2;Temp;Humidity;BMP_temperature;BMP_pressure;BME280_temperature;BME280_humidity;BME280_pressure;Samples;Min_cycle;Max_cycle;Signal;HPM_P1;HPM_P2
2023/03/16 00:00:44;;;;;;;2.38;1.40;;;19.80;61.60;;;;;;4800585;29;92125;-81
2023/03/16 00:03:10;;;;;;;2.10;1.55;;;19.80;61.50;;;;;;4800188;29;92552;-81
2023/03/16 00:05:37;;;;;;;2.78;1.25;;;19.80;61.40;;;;;;4800364;29;93798;-81
2023/03/16 00:08:03;;;;;;;2.72;1.55;;;19.70;61.40;;;;;;4800762;29;93775;-81
2023/03/16 00:10:28;;;;;;;2.40;1.70;;;19.70;61.40;;;;;;4800417;29;92020;-81
2023/03/16 00:12:55;;;;;;;1.83;1.40;;;19.70;61.50;;;;;;4800053;29;92394;-81
2023/03/16 00:15:21;;;;;;;2.63;1.38;;;19.70;61.30;;;;;;4799233;29;93741;-81
2023/03/16 00:17:47;;;;;;;4.25;1.67;;;19.70;61.60;;;;;;4799669;29;93391;-81
2023/03/16 00:20:17;;;;;;;2.22;1.15;;;19.70;61.40;;;;;;4800244;29;92490;-81
2023/03/16 00:22:42;;;;;;;;;;;19.70;61.50;;;;;;4799525;29;91616;-80
2023/03/16 00:25:09;;;;;;;2.50;1.50;;;19.70;61.50;;;;;;4799839;29;93059;-81
2023/03/16 00:27:35;;;;;;;1.95;1.27;;;19.60;61.70;;;;;;4800194;29;93001;-81
2023/03/16 00:30:02;;;;;;;2.88;1.45;;;19.60;61.40;;;;;;4802736;29;93068;-81
2023/03/16 00:32:35;;;;;;;1.80;1.30;;;19.60;61.60;;;;;;4803034;29;92502;-81
2023/03/16 00:35:03;;;;;;;3.72;1.45;;;19.60;61.70;;;;;;4803334;29;92665;-80
2023/03/16 00:37:29;;;;;;;3.03;1.52;;;19.60;61.70;;;;;;4801729;29;94501;-80
2023/03/16 00:39:56;;;;;;;3.20;1.48;;;19.60;61.50;;;;;;4803769;29;92863;-81
2023/03/16 00:42:27;;;;;;;1.92;1.23;;;19.60;61.50;;;;;;4803182;29;92408;-81
2023/03/16 00:44:56;;;;;;;2.08;1.42;;;19.50;61.50;;;;;;4802192;29;93800;-81
2023/03/16 00:47:24;;;;;;;1.92;1.15;;;19.50;61.30;;;;;;4804540;29;92352;-81
2023/03/16 00:49:51;;;;;;;2.17;1.23;;;19.50;61.50;;;;;;4802393;29;92532;-81
2023/03/16 00:52:17;;;;;;;6.10;1.65;;;19.50;61.40;;;;;;4802171;29;92427;-81
2023/03/16 00:54:45;;;;;;;2.10;1.38;;;19.50;61.70;;;;;;4801491;29;95360;-81
2023/03/16 00:57:13;;;;;;;1.75;1.30;;;19.50;61.40;;;;;;4801673;29;94257;-81
2023/03/16 00:59:39;;;;;;;2.72;1.48;;;19.50;61.50;;;;;;4802758;29;94825;-81
2023/03/16 01:02:06;;;;;;;3.03;1.42;;;19.50;61.40;;;;;;4803937;29;92503;-81
2023/03/16 01:04:34;;;;;;;2.67;1.63;;;19.50;61.30;;;;;;4801926;29;94009;-81
2023/03/16 01:07:11;;;;;;;1.40;1.10;;;19.40;61.30;;;;;;4785389;29;96527;-81
2023/03/16 01:09:37;;;;;;;2.55;1.33;;;19.40;61.30;;;;;;4801785;29;92887;-80
2023/03/16 01:12:05;;;;;;;2.22;1.50;;;19.40;61.30;;;;;;4801670;29;91861;-81
2023/03/16 01:14:33;;;;;;;3.17;1.30;;;19.40;61.20;;;;;;4801953;29;93607;-82
2023/03/16 01:17:00;;;;;;;2.22;1.40;;;19.40;61.20;;;;;;4801624;29;93239;-81
2023/03/16 01:19:26;;;;;;;2.08;1.38;;;19.40;61.20;;;;;;4801106;29;92969;-81
2023/03/16 01:21:52;;;;;;;2.53;1.58;;;19.40;61.30;;;;;;4802622;29;92539;-81
2023/03/16 01:24:18;;;;;;;1.77;1.15;;;19.40;61.30;;;;;;4801083;29;93047;-81
2023/03/16 01:26:43;;;;;;;2.90;1.52;;;19.40;61.20;;;;;;4802084;29;92492;-79
2023/03/16 01:29:11;;;;;;;2.78;1.42;;;19.30;61.10;;;;;;4803188;29;92479;-81
2023/03/16 01:31:37;;;;;;;2.65;1.55;;;19.30;61.20;;;;;;4800898;29;92259;-81
2023/03/16 01:34:03;;;;;;;2.13;1.48;;;19.30;61.30;;;;;;4780347;29;96391;-81
2023/03/16 01:36:29;;;;;;;2.45;1.35;;;19.30;61.20;;;;;;4780901;29;91814;-81
2023/03/16 01:38:54;;;;;;;2.13;1.23;;;19.30;61.10;;;;;;4781012;29;92341;-81
2023/03/16 01:41:21;;;;;;;2.47;1.20;;;19.30;61.10;;;;;;4780768;29;92663;-81
2023/03/16 01:43:47;;;;;;;4.00;1.48;;;19.30;61.10;;;;;;4778332;29;94861;-80
2023/03/16 01:46:20;;;;;;;2.67;1.38;;;19.30;61.00;;;;;;4780898;29;93977;-80
2023/03/16 01:49:15;;;;;;;2.72;1.33;;;19.30;61.00;;;;;;4772951;29;92856;-81
2023/03/16 01:51:50;;;;;;;1.60;1.02;;;19.30;61.00;;;;;;4779431;29;92646;-81
2023/03/16 01:54:51;;;;;;;1.40;1.00;;;19.20;61.00;;;;;;4779840;29;93469;-81
2023/03/16 01:57:31;;;;;;;6.63;1.58;;;19.20;61.10;;;;;;4781371;29;93085;-80
2023/03/16 02:00:08;;;;;;;1.92;1.38;;;19.20;61.00;;;;;;4781947;29;92461;-81
2023/03/16 02:02:34;;;;;;;2.88;1.50;;;19.20;61.00;;;;;;4781924;29;91613;-81
2023/03/16 02:05:14;;;;;;;1.67;1.40;;;19.20;60.80;;;;;;4781895;29;93340;-81
2023/03/16 02:07:48;;;;;;;1.75;1.15;;;19.20;61.00;;;;;;4780268;29;96201;-81
2023/03/16 02:10:17;;;;;;;2.85;1.30;;;19.20;61.10;;;;;;4780664;29;93080;-80
2023/03/16 02:12:43;;;;;;;2.10;1.40;;;19.20;61.10;;;;;;4798898;29;92067;-80
2023/03/16 02:15:12;;;;;;;1.88;1.15;;;19.20;61.00;;;;;;4801414;29;93232;-80
2023/03/16 02:17:39;;;;;;;1.83;1.17;;;19.20;60.90;;;;;;4801239;29;93079;-81
2023/03/16 02:20:21;;;;;;;2.17;1.13;;;19.10;60.90;;;;;;4801576;29;92000;-81
2023/03/16 02:22:49;;;;;;;1.50;1.08;;;19.10;61.00;;;;;;4800369;29;92814;-81
2023/03/16 02:25:17;;;;;;;2.60;1.25;;;19.20;61.00;;;;;;4802002;29;94523;-81
2023/03/16 02:27:55;;;;;;;2.85;1.65;;;19.10;60.90;;;;;;4800219;29;93787;-81
2023/03/16 02:30:21;;;;;;;2.00;1.10;;;19.10;60.90;;;;;;4799611;29;92220;-81
2023/03/16 02:32:50;;;;;;;1.83;1.10;;;19.10;60.80;;;;;;4801352;29;92246;-81
2023/03/16 02:35:16;;;;;;;1.37;1.00;;;19.10;60.80;;;;;;4801405;29;94441;-81
2023/03/16 02:37:42;;;;;;;3.30;1.10;;;19.10;60.80;;;;;;4800686;29;94356;-81
2023/03/16 02:40:27;;;;;;;1.55;1.17;;;19.10;61.70;;;;;;4800741;29;92399;-81
2023/03/16 02:43:13;;;;;;;1.85;1.30;;;19.10;61.00;;;;;;4800863;29;92317;-81
2023/03/16 02:45:44;;;;;;;1.95;1.40;;;19.00;60.90;;;;;;4801026;29;92217;-81
2023/03/16 02:48:16;;;;;;;2.08;1.25;;;19.00;60.70;;;;;;4800389;29;93293;-81
2023/03/16 02:50:48;;;;;;;2.45;1.40;;;19.10;60.90;;;;;;4800713;29;92595;-81
2023/03/16 02:53:14;;;;;;;1.42;1.13;;;19.00;60.80;;;;;;4801291;29;91599;-81
2023/03/16 02:55:40;;;;;;;1.25;1.13;;;19.00;60.80;;;;;;4799993;29;92703;-81
2023/03/16 02:58:06;;;;;;;1.83;1.27;;;19.00;60.90;;;;;;4801678;29;93463;-81
2023/03/16 03:00:31;;;;;;;1.75;1.20;;;19.00;61.00;;;;;;4800953;29;93364;-81
2023/03/16 03:02:57;;;;;;;2.80;1.50;;;19.00;60.90;;;;;;4800373;29;92304;-80
2023/03/16 03:05:23;;;;;;;2.30;1.33;;;19.00;60.80;;;;;;4801994;29;93003;-81
2023/03/16 03:07:50;;;;;;;2.35;1.30;;;19.00;60.90;;;;;;4800667;29;97545;-80
2023/03/16 03:10:15;;;;;;;2.35;1.38;;;19.00;60.90;;;;;;4801064;29;92507;-81
2023/03/16 03:12:41;;;;;;;2.47;1.30;;;18.90;60.70;;;;;;4792110;29;92016;-81
2023/03/16 03:15:07;;;;;;;2.88;1.23;;;18.90;60.70;;;;;;4790233;29;92014;-81
2023/03/16 03:17:33;;;;;;;1.75;1.10;;;19.00;61.00;;;;;;4790082;29;93271;-81
2023/03/16 03:20:05;;;;;;;2.25;1.35;;;19.00;60.70;;;;;;4792611;29;92406;-81
2023/03/16 03:22:33;;;;;;;3.47;1.35;;;19.00;60.80;;;;;;4789692;29;92542;-81
2023/03/16 03:24:59;;;;;;;1.23;1.08;;;18.90;60.80;;;;;;4790381;29;94145;-81
2023/03/16 03:27:24;;;;;;;2.33;1.10;;;18.90;60.60;;;;;;4791699;29;93617;-81
2023/03/16 03:29:51;;;;;;;1.30;1.10;;;18.90;60.60;;;;;;4793532;29;92164;-80
2023/03/16 03:32:16;;;;;;;2.00;1.27;;;18.90;60.60;;;;;;4792351;29;91982;-81
2023/03/16 03:34:42;;;;;;;1.85;1.15;;;18.90;60.30;;;;;;4790578;29;92677;-80
2023/03/16 03:37:08;;;;;;;2.00;1.50;;;18.90;60.50;;;;;;4791055;29;93149;-81
2023/03/16 03:39:34;;;;;;;1.15;0.93;;;18.90;60.70;;;;;;4791340;29;92765;-80
2023/03/16 03:42:01;;;;;;;1.67;1.13;;;18.90;60.60;;;;;;4791508;29;92108;-80
2023/03/16 03:44:27;;;;;;;1.27;1.00;;;18.90;60.50;;;;;;4790895;29;92819;-81
2023/03/16 03:46:53;;;;;;;1.40;1.10;;;18.80;60.50;;;;;;4791603;29;92473;-80
2023/03/16 03:49:18;;;;;;;1.90;1.35;;;18.80;60.50;;;;;;4788616;29;93281;-81
2023/03/16 03:51:44;;;;;;;1.38;1.25;;;18.80;60.50;;;;;;4789970;29;92638;-81
2023/03/16 03:54:10;;;;;;;1.40;1.10;;;18.80;60.60;;;;;;4766130;29;96360;-81
2023/03/16 03:56:35;;;;;;;1.50;1.20;;;18.80;60.60;;;;;;4790464;29;93971;-81
2023/03/16 03:59:01;;;;;;;2.97;1.25;;;18.80;60.40;;;;;;4790706;29;91958;-81
2023/03/16 04:01:27;;;;;;;2.28;1.27;;;18.80;60.50;;;;;;4788967;29;92169;-81
2023/03/16 04:03:52;;;;;;;2.00;1.30;;;18.80;60.40;;;;;;4789861;29;93227;-80
2023/03/16 04:06:18;;;;;;;1.75;1.23;;;18.80;60.40;;;;;;4789796;29;92314;-80
2023/03/16 04:08:44;;;;;;;1.20;1.10;;;18.80;60.30;;;;;;4789984;29;92074;-81
2023/03/16 04:11:10;;;;;;;2.05;1.10;;;18.80;60.50;;;;;;4791746;29;92428;-80
2023/03/16 04:13:36;;;;;;;2.17;1.30;;;18.80;60.50;;;;;;4799568;29;94116;-80
2023/03/16 04:16:02;;;;;;;1.50;1.08;;;18.70;60.40;;;;;;4798612;29;93740;-81
2023/03/16 04:18:29;;;;;;;2.58;1.10;;;18.80;60.60;;;;;;4799709;29;92421;-79
2023/03/16 04:20:54;;;;;;;2.55;1.27;;;18.80;60.40;;;;;;4800753;29;92524;-81
2023/03/16 04:23:21;;;;;;;1.20;1.10;;;18.70;60.40;;;;;;4800641;29;94643;-80
2023/03/16 04:25:46;;;;;;;0.95;0.88;;;18.70;60.50;;;;;;4800366;29;92532;-81
2023/03/16 04:28:12;;;;;;;2.17;1.30;;;18.70;60.30;;;;;;4799283;29;92063;-80
2023/03/16 04:30:38;;;;;;;1.95;1.10;;;18.70;60.40;;;;;;4800009;29;91608;-81
2023/03/16 04:33:04;;;;;;;2.28;1.45;;;18.70;60.10;;;;;;4799349;29;94114;-81
2023/03/16 04:35:30;;;;;;;1.83;1.27;;;18.70;60.20;;;;;;4799658;29;93061;-81
2023/03/16 04:37:56;;;;;;;2.40;1.13;;;18.70;60.20;;;;;;4800382;29;93212;-80
2023/03/16 04:40:22;;;;;;;1.58;1.25;;;18.70;60.10;;;;;;4799722;29;91937;-82
2023/03/16 04:42:48;;;;;;;1.30;1.20;;;18.70;60.20;;;;;;4797381;29;94155;-80
2023/03/16 04:45:16;;;;;;;1.58;1.10;;;18.70;60.20;;;;;;4799956;29;93032;-81
2023/03/16 04:47:42;;;;;;;1.33;1.08;;;18.70;60.20;;;;;;4799754;29;92322;-81
2023/03/16 04:50:09;;;;;;;1.48;1.02;;;18.70;60.40;;;;;;4800090;29;92753;-80
2023/03/16 04:52:35;;;;;;;1.55;1.02;;;18.70;60.10;;;;;;4760004;29;94211;-81
2023/03/16 04:55:00;;;;;;;1.17;1.02;;;18.70;60.00;;;;;;4759721;29;93085;-82
2023/03/16 04:57:26;;;;;;;1.85;1.17;;;18.60;60.10;;;;;;4760298;29;92400;-82
2023/03/16 04:59:52;;;;;;;1.13;0.93;;;18.70;60.00;;;;;;4761146;29;92048;-81
2023/03/16 05:02:18;;;;;;;2.25;1.20;;;18.70;60.20;;;;;;4760668;29;94039;-81
2023/03/16 05:04:44;;;;;;;1.73;1.30;;;18.60;60.00;;;;;;4759383;29;94519;-81
2023/03/16 05:07:10;;;;;;;1.77;1.20;;;18.60;60.00;;;;;;4760619;29;92068;-81
2023/03/16 05:09:36;;;;;;;1.38;1.10;;;18.60;60.00;;;;;;4759847;29;92635;-81
2023/03/16 05:12:02;;;;;;;2.15;1.20;;;18.60;60.00;;;;;;4759457;29;93093;-82
2023/03/16 05:14:28;;;;;;;1.98;1.30;;;18.60;60.00;;;;;;4763021;29;92688;-81
2023/03/16 05:16:53;;;;;;;1.42;1.13;;;18.60;59.90;;;;;;4762850;29;92361;-82
2023/03/16 05:19:19;;;;;;;1.80;1.27;;;18.60;60.00;;;;;;4762743;29;91398;-81
2023/03/16 05:21:44;;;;;;;1.98;1.13;;;18.60;59.90;;;;;;4761580;29;93356;-81
2023/03/16 05:24:11;;;;;;;1.13;0.73;;;18.60;60.00;;;;;;4761876;29;92836;-81
2023/03/16 05:26:37;;;;;;;1.70;1.05;;;18.60;59.80;;;;;;4762587;29;93077;-81
2023/03/16 05:29:03;;;;;;;1.10;1.00;;;18.50;59.90;;;;;;4766041;29;92582;-81
2023/03/16 05:31:31;;;;;;;2.45;1.30;;;18.50;59.90;;;;;;4801419;29;93533;-82
2023/03/16 05:33:57;;;;;;;1.88;1.45;;;18.50;59.90;;;;;;4801136;29;92811;-82
2023/03/16 05:36:23;;;;;;;1.88;1.20;;;18.50;59.80;;;;;;4801578;29;92364;-81
2023/03/16 05:38:50;;;;;;;2.00;1.20;;;18.50;59.90;;;;;;4802252;29;92546;-82
2023/03/16 05:41:17;;;;;;;2.00;1.10;;;18.50;60.00;;;;;;4802805;29;93033;-81
2023/03/16 05:43:43;;;;;;;1.58;1.17;;;18.50;59.90;;;;;;4800653;29;93597;-81
2023/03/16 05:46:09;;;;;;;1.42;1.10;;;18.50;59.80;;;;;;4801913;29;92158;-81
2023/03/16 05:48:36;;;;;;;1.88;1.20;;;18.50;59.70;;;;;;4802091;29;92667;-81
2023/03/16 05:51:05;;;;;;;1.88;0.82;;;18.50;59.80;;;;;;4800635;29;94348;-80
2023/03/16 05:53:34;;;;;;;2.55;1.42;;;18.50;59.60;;;;;;4801013;29;93829;-80
2023/03/16 05:56:00;;;;;;;1.98;1.08;;;18.50;59.70;;;;;;4803496;29;92055;-81
2023/03/16 05:58:26;;;;;;;1.45;1.20;;;18.50;59.60;;;;;;4802295;29;92708;-82
2023/03/16 06:00:54;;;;;;;1.55;1.05;;;18.40;59.70;;;;;;4800901;29;93250;-81
2023/03/16 06:03:21;;;;;;;1.55;1.13;;;18.50;59.70;;;;;;4801008;29;92369;-81
2023/03/16 06:05:47;;;;;;;1.75;1.15;;;18.40;59.80;;;;;;4801138;29;92500;-81
2023/03/16 06:08:14;;;;;;;1.35;1.17;;;18.50;59.70;;;;;;4801489;29;91755;-81
2023/03/16 06:10:39;;;;;;;2.28;1.10;;;18.40;59.70;;;;;;4800122;29;93451;-81
2023/03/16 06:13:05;;;;;;;1.42;1.10;;;18.50;59.80;;;;;;4791659;29;92225;-81
2023/03/16 06:15:31;;;;;;;1.60;1.17;;;18.40;59.60;;;;;;4792896;29;93121;-81
2023/03/16 06:17:57;;;;;;;1.50;1.23;;;18.50;59.70;;;;;;4792162;29;92834;-82
2023/03/16 06:20:22;;;;;;;1.60;1.20;;;18.50;59.90;;;;;;4791164;29;93451;-81
2023/03/16 06:22:48;;;;;;;1.45;0.90;;;18.40;59.70;;;;;;4792334;29;93197;-81
2023/03/16 06:25:14;;;;;;;2.20;1.33;;;18.40;59.60;;;;;;4792031;29;92404;-81
2023/03/16 06:27:41;;;;;;;1.25;1.10;;;18.40;59.70;;;;;;4791088;29;92231;-81
2023/03/16 06:30:08;;;;;;;1.13;1.00;;;18.40;59.70;;;;;;4793456;29;93658;-82
2023/03/16 06:32:35;;;;;;;1.00;0.90;;;18.40;59.70;;;;;;4791595;29;93589;-81
2023/03/16 06:35:02;;;;;;;1.30;0.98;;;18.50;59.70;;;;;;4793153;29;92351;-81
2023/03/16 06:37:28;;;;;;;4.45;1.20;;;18.50;59.40;;;;;;4792658;29;92055;-83
2023/03/16 06:39:54;;;;;;;1.58;1.20;;;18.50;59.00;;;;;;4795105;29;93595;-83
2023/03/16 06:42:20;;;;;;;2.10;1.35;;;18.50;59.40;;;;;;4792942;29;94364;-81
2023/03/16 06:44:46;;;;;;;2.00;1.30;;;18.60;59.40;;;;;;4791078;29;92411;-83
2023/03/16 06:47:12;;;;;;;2.25;1.52;;;18.70;59.20;;;;;;4794019;29;91863;-82
2023/03/16 06:49:38;;;;;;;2.92;1.40;;;18.90;58.80;;;;;;4795381;29;93153;-83
2023/03/16 06:52:04;;;;;;;3.58;1.42;;;19.00;58.70;;;;;;4794300;29;93170;-83
2023/03/16 06:54:32;;;;;;;2.17;1.20;;;19.20;58.60;;;;;;4794135;29;92558;-82
2023/03/16 06:56:58;;;;;;;2.17;1.35;;;19.40;58.60;;;;;;4794223;29;91998;-82
2023/03/16 06:59:24;;;;;;;2.20;1.45;;;19.50;58.40;;;;;;4793295;29;93613;-80
2023/03/16 07:01:51;;;;;;;2.78;1.60;;;19.70;58.50;;;;;;4792519;29;93487;-82
2023/03/16 07:04:16;;;;;;;3.17;1.88;;;19.80;58.10;;;;;;4794304;29;93338;-82
2023/03/16 07:06:42;;;;;;;4.25;1.50;;;19.80;58.10;;;;;;4793960;29;92546;-82
2023/03/16 07:09:08;;;;;;;2.53;1.58;;;19.90;58.10;;;;;;4790180;29;93203;-81
2023/03/16 07:11:34;;;;;;;6.25;1.50;;;19.80;58.20;;;;;;4797234;29;94205;-82
2023/03/16 07:14:00;;;;;;;1.92;1.05;;;19.90;58.30;;;;;;4803010;29;92581;-82
2023/03/16 07:16:26;;;;;;;7.35;1.83;;;19.80;58.20;;;;;;4802332;29;92222;-83
2023/03/16 07:18:53;;;;;;;2.05;1.30;;;19.80;58.40;;;;;;4801883;29;93612;-82
2023/03/16 07:21:19;;;;;;;3.35;1.65;;;19.70;58.40;;;;;;4784801;29;95667;-82
2023/03/16 07:23:45;;;;;;;2.42;1.30;;;19.70;58.50;;;;;;4802044;29;92419;-82
2023/03/16 07:26:11;;;;;;;2.95;1.17;;;19.70;58.60;;;;;;4802756;29;92630;-81
2023/03/16 07:28:37;;;;;;;2.40;1.13;;;19.70;58.40;;;;;;4801012;29;94757;-82
2023/03/16 07:31:04;;;;;;;6.85;1.63;;;19.70;58.50;;;;;;4801555;29;93824;-82
2023/03/16 07:33:34;;;;;;;1.52;1.00;;;19.60;58.10;;;;;;4801670;29;92303;-82
2023/03/16 07:36:03;;;;;;;2.20;1.42;;;19.60;58.70;;;;;;4801260;29;92697;-83
2023/03/16 07:38:29;;;;;;;6.10;1.60;;;19.50;58.60;;;;;;4801359;29;94593;-82
2023/03/16 07:40:55;;;;;;;3.83;1.40;;;19.50;58.40;;;;;;4801713;29;94259;-82
2023/03/16 07:43:20;;;;;;;7.43;1.30;;;19.50;58.80;;;;;;4801725;29;92384;-81
2023/03/16 07:45:50;;;;;;;2.30;1.30;;;19.50;58.70;;;;;;4801927;29;91381;-82
2023/03/16 07:48:17;;;;;;;3.67;1.48;;;19.50;58.70;;;;;;4801792;29;94024;-82
2023/03/16 07:50:43;;;;;;;2.03;1.30;;;19.40;58.80;;;;;;4801026;29;94020;-82
2023/03/16 07:53:09;;;;;;;2.38;1.48;;;19.40;58.70;;;;;;4800418;29;93533;-82
2023/03/16 07:55:38;;;;;;;2.45;1.15;;;19.40;58.10;;;;;;4799975;29;92408;-82
2023/03/16 07:58:05;;;;;;;4.15;1.45;;;19.40;59.00;;;;;;4796912;29;93457;-82
2023/03/16 08:00:41;;;;;;;3.20;1.27;;;19.30;58.80;;;;;;4797858;29;92791;-81
2023/03/16 08:03:07;;;;;;;2.53;1.30;;;19.20;58.90;;;;;;4799412;29;92678;-82
2023/03/16 08:05:33;;;;;;;8.63;2.35;;;19.20;58.70;;;;;;4739932;29;92395;-83
2023/03/16 08:08:00;;;;;;;6.00;2.38;;;19.20;56.90;;;;;;4801213;29;93499;-83
2023/03/16 08:10:26;;;;;;;4.03;1.58;;;19.20;56.80;;;;;;4799951;29;93164;-84
2023/03/16 08:12:51;;;;;;;7.60;2.03;;;19.20;58.20;;;;;;4799940;29;92819;-82
2023/03/16 08:15:18;;;;;;;23.25;3.78;;;19.30;58.00;;;;;;4799516;29;92034;-83
2023/03/16 08:17:44;;;;;;;14.85;3.53;;;19.20;57.10;;;;;;4799161;29;94126;-83
2023/03/16 08:20:13;;;;;;;11.05;2.95;;;19.20;57.80;;;;;;4799607;29;94288;-83
2023/03/16 08:22:40;;;;;;;13.82;2.72;;;19.20;57.80;;;;;;4799794;29;94156;-82
2023/03/16 08:25:09;;;;;;;15.63;3.17;;;19.20;57.60;;;;;;4799954;29;92465;-83
2023/03/16 08:27:36;;;;;;;11.00;2.30;;;19.20;57.80;;;;;;4797696;29;93364;-83
2023/03/16 08:30:10;;;;;;;16.45;2.97;;;19.30;57.80;;;;;;4796386;29;93378;-83
2023/03/16 08:32:38;;;;;;;14.25;2.45;;;19.30;57.90;;;;;;4788751;29;92031;-83
2023/03/16 08:35:05;;;;;;;15.35;3.42;;;19.30;57.90;;;;;;4798061;29;91853;-83
2023/03/16 08:37:30;;;;;;;7.95;2.72;;;19.30;57.90;;;;;;4796733;29;95629;-83
2023/03/16 08:39:59;;;;;;;11.70;3.17;;;19.30;57.80;;;;;;4795480;29;92755;-83
2023/03/16 08:42:25;;;;;;;12.60;3.28;;;19.30;57.80;;;;;;4799335;29;92943;-83
2023/03/16 08:44:53;;;;;;;9.52;2.92;;;19.30;57.80;;;;;;4800263;29;92475;-83
2023/03/16 08:47:23;;;;;;;12.98;3.47;;;19.30;57.80;;;;;;4801223;29;93269;-83
2023/03/16 08:49:49;;;;;;;12.88;2.83;;;19.30;57.80;;;;;;4803063;29;93299;-83
2023/03/16 08:52:15;;;;;;;9.30;3.25;;;19.30;57.80;;;;;;4793493;29;92377;-82
2023/03/16 08:54:42;;;;;;;10.30;2.90;;;19.30;57.80;;;;;;4803481;29;92505;-83
2023/03/16 08:57:09;;;;;;;6.93;2.22;;;19.30;57.90;;;;;;4802042;29;92521;-82
2023/03/16 08:59:35;;;;;;;11.73;2.80;;;19.30;57.90;;;;;;4804293;29;93078;-82
2023/03/16 09:02:03;;;;;;;8.93;3.30;;;19.30;57.80;;;;;;4804963;29;92651;-83
2023/03/16 09:04:29;;;;;;;10.55;2.90;;;19.30;57.90;;;;;;4802658;29;92182;-83
2023/03/16 09:06:55;;;;;;;7.97;2.90;;;19.30;58.00;;;;;;4768855;29;93636;-83
2023/03/16 09:09:21;;;;;;;12.30;3.17;;;19.30;58.00;;;;;;4801473;29;93224;-84
2023/03/16 09:11:48;;;;;;;13.07;3.65;;;19.30;58.00;;;;;;4804275;29;92486;-83
2023/03/16 09:14:14;;;;;;;11.82;3.45;;;19.30;57.70;;;;;;4803936;29;92474;-81
2023/03/16 09:16:40;;;;;;;11.80;3.10;;;19.40;57.20;;;;;;4800409;29;92853;-83
2023/03/16 09:19:06;;;;;;;7.10;2.67;;;19.30;57.70;;;;;;4800968;29;93068;-83
2023/03/16 09:21:33;;;;;;;10.45;2.90;;;19.40;57.70;;;;;;4801874;29;92460;-83
2023/03/16 09:23:59;;;;;;;12.25;3.78;;;19.40;57.80;;;;;;4801275;29;91720;-82
2023/03/16 09:26:25;;;;;;;12.40;3.85;;;19.50;57.60;;;;;;4799762;29;93359;-81
2023/03/16 09:28:51;;;;;;;14.25;3.47;;;19.60;57.80;;;;;;4801036;29;92343;-81
2023/03/16 09:31:18;;;;;;;13.82;3.75;;;19.80;57.80;;;;;;4796763;29;93006;-83
2023/03/16 09:33:45;;;;;;;13.20;4.20;;;19.90;57.80;;;;;;4799352;29;93987;-80
2023/03/16 09:36:12;;;;;;;13.80;3.67;;;20.00;57.70;;;;;;4798476;29;93608;-82
2023/03/16 09:38:38;;;;;;;13.00;4.18;;;20.10;57.70;;;;;;4800764;29;93646;-83
2023/03/16 09:41:08;;;;;;;10.38;3.45;;;20.10;57.50;;;;;;4801371;29;92631;-82
2023/03/16 09:43:42;;;;;;;13.60;4.47;;;20.20;57.70;;;;;;4799976;29;92498;-82
2023/03/16 09:46:15;;;;;;;21.98;7.45;;;20.20;57.40;;;;;;4800125;29;93049;-81
2023/03/16 09:48:41;;;;;;;17.80;6.40;;;20.20;54.90;;;;;;4800359;29;92246;-83
2023/03/16 09:51:21;;;;;;;18.50;4.78;;;20.20;54.20;;;;;;4799383;29;92418;-83
2023/03/16 09:53:51;;;;;;;18.50;4.88;;;20.20;56.20;;;;;;4801194;29;92806;-82
2023/03/16 09:56:28;;;;;;;13.93;5.38;;;20.20;56.60;;;;;;4801908;29;94584;-83
2023/03/16 09:58:54;;;;;;;13.05;3.85;;;20.20;56.70;;;;;;4800863;29;98641;-82
2023/03/16 10:01:40;;;;;;;14.82;4.57;;;20.20;57.00;;;;;;4801142;29;92559;-82
2023/03/16 10:04:15;;;;;;;13.48;4.78;;;20.10;57.20;;;;;;4799455;29;92574;-82
2023/03/16 10:06:54;;;;;;;17.70;4.85;;;20.10;57.10;;;;;;4800994;29;93655;-81
2023/03/16 10:09:51;;;;;;;58.22;11.40;;;20.10;56.70;;;;;;4799520;29;93485;-83
2023/03/16 10:12:18;;;;;;;46.58;11.20;;;20.00;56.90;;;;;;4800638;29;92651;-83
2023/03/16 10:15:11;;;;;;;22.15;6.47;;;20.00;57.20;;;;;;4801239;29;91890;-82
2023/03/16 10:17:51;;;;;;;20.67;5.68;;;20.00;57.20;;;;;;4802430;29;93640;-82
2023/03/16 10:20:19;;;;;;;26.10;6.38;;;20.00;57.50;;;;;;4802345;29;93352;-82
2023/03/16 10:22:48;;;;;;;21.17;6.47;;;19.90;57.40;;;;;;4802393;29;93561;-82
2023/03/16 10:25:32;;;;;;;27.92;6.88;;;19.90;57.70;;;;;;4801097;29;92851;-83
2023/03/16 10:27:57;;;;;;;27.17;6.55;;;19.90;57.90;;;;;;4801513;29;92797;-83
2023/03/16 10:30:30;;;;;;;26.70;6.68;;;19.90;58.00;;;;;;4802658;29;92777;-82
2023/03/16 10:33:09;;;;;;;25.88;7.32;;;19.80;57.90;;;;;;4801536;29;92458;-82
2023/03/16 10:35:56;;;;;;;22.40;6.13;;;19.90;58.00;;;;;;4801617;29;92401;-82
2023/03/16 10:38:41;;;;;;;20.33;6.05;;;19.80;58.10;;;;;;4802628;29;93639;-82
2023/03/16 10:41:22;;;;;;;19.65;6.35;;;19.80;58.20;;;;;;4800174;29;100557;-82
2023/03/16 10:43:56;;;;;;;24.73;6.85;;;19.80;58.30;;;;;;4802017;29;92299;-82
2023/03/16 10:46:26;;;;;;;22.35;6.22;;;19.90;58.40;;;;;;4802029;29;92550;-83
2023/03/16 10:48:59;;;;;;;19.75;5.63;;;19.80;58.10;;;;;;4800909;29;95057;-82
2023/03/16 10:51:31;;;;;;;22.48;6.25;;;19.90;58.20;;;;;;4802092;29;93285;-82
2023/03/16 10:54:20;;;;;;;22.35;5.82;;;19.90;58.20;;;;;;4802002;29;92799;-82
2023/03/16 10:56:49;;;;;;;22.98;6.18;;;19.90;58.10;;;;;;4800955;29;92658;-82
2023/03/16 10:59:32;;;;;;;18.80;5.75;;;20.00;58.20;;;;;;4802509;29;93276;-82
2023/03/16 11:02:01;;;;;;;18.35;5.30;;;19.90;58.30;;;;;;4801776;29;96616;-83
2023/03/16 11:04:31;;;;;;;18.38;5.82;;;19.90;58.30;;;;;;4802037;29;92336;-83
2023/03/16 11:06:58;;;;;;;21.58;5.88;;;19.90;58.20;;;;;;4801756;29;91213;-83
2023/03/16 11:09:35;;;;;;;19.55;5.30;;;19.90;58.20;;;;;;4800480;29;93202;-82
2023/03/16 11:12:21;;;;;;;19.33;5.97;;;19.90;58.40;;;;;;4799855;29;93278;-83
2023/03/16 11:14:48;;;;;;;18.10;4.82;;;20.00;58.30;;;;;;4799304;29;93331;-83
2023/03/16 11:17:48;;;;;;;17.10;5.35;;;19.90;58.30;;;;;;4802636;29;92537;-83
2023/03/16 11:20:25;;;;;;;22.33;5.75;;;19.90;58.00;;;;;;4726760;29;97117;-83
2023/03/16 11:22:51;;;;;;;22.33;6.07;;;19.90;57.80;;;;;;4726415;29;97474;-83
2023/03/16 11:25:27;;;;;;;15.10;4.50;;;20.00;58.00;;;;;;4726955;29;92789;-83
2023/03/16 11:28:07;;;;;;;17.75;5.45;;;20.00;57.80;;;;;;4726293;29;92586;-83
2023/03/16 11:31:23;;;;;;;20.35;5.80;;;20.00;58.00;;;;;;4725369;29;93541;-82
2023/03/16 11:33:50;;;;;;;15.68;5.05;;;20.10;57.80;;;;;;4673810;30;93657;-82
2023/03/16 11:36:37;;;;;;;15.85;5.20;;;20.10;58.50;;;;;;4671933;30;92613;-83
2023/03/16 11:39:40;;;;;;;16.40;5.47;;;20.10;58.70;;;;;;4673106;30;92446;-83
2023/03/16 11:42:22;;;;;;;18.45;5.15;;;20.10;58.80;;;;;;4672462;30;93731;-83
2023/03/16 11:45:02;;;;;;;16.23;5.32;;;20.10;58.40;;;;;;4672311;30;93901;-81
2023/03/16 11:47:34;;;;;;;;;;;20.10;57.30;;;;;;4673440;30;92753;-83
2023/03/16 11:50:11;;;;;;;13.48;4.95;;;20.10;57.10;;;;;;4675258;30;92761;-84
2023/03/16 11:52:37;;;;;;;14.40;5.20;;;20.10;58.10;;;;;;4673433;30;93754;-83
2023/03/16 11:55:40;;;;;;;11.75;4.70;;;20.10;57.40;;;;;;4681622;29;92799;-82
2023/03/16 11:58:27;;;;;;;16.70;4.70;;;20.10;58.10;;;;;;4727677;29;92226;-83
2023/03/16 12:01:21;;;;;;;17.05;5.38;;;20.00;58.10;;;;;;4726152;29;91909;-82
2023/03/16 12:03:49;;;;;;;16.60;4.90;;;20.00;58.30;;;;;;4662587;30;93204;-83
2023/03/16 12:06:37;;;;;;;19.02;4.47;;;20.00;58.40;;;;;;4649600;30;96104;-83
2023/03/16 12:09:03;;;;;;;15.75;5.72;;;20.00;58.40;;;;;;4663817;30;93497;-83
2023/03/16 12:11:29;;;;;;;16.67;4.82;;;20.00;58.40;;;;;;4713854;29;92548;-83
2023/03/16 12:14:07;;;;;;;18.95;5.18;;;19.90;58.50;;;;;;4716540;29;94468;-84
2023/03/16 12:16:53;;;;;;;13.35;4.85;;;20.00;58.60;;;;;;4717094;29;94105;-83
2023/03/16 12:19:49;;;;;;;12.30;4.35;;;20.00;58.50;;;;;;4717872;29;92521;-83
2023/03/16 12:22:21;;;;;;;14.18;4.35;;;20.00;58.40;;;;;;4716645;29;92095;-83
2023/03/16 12:24:47;;;;;;;14.35;4.60;;;19.90;58.40;;;;;;4720023;29;93441;-82
2023/03/16 12:27:17;;;;;;;14.43;4.57;;;19.90;58.40;;;;;;4720731;29;92663;-83
2023/03/16 12:30:02;;;;;;;14.13;4.88;;;19.90;58.30;;;;;;4719768;29;92377;-82
2023/03/16 12:32:45;;;;;;;12.13;5.10;;;20.00;58.30;;;;;;4719846;29;92786;-83
2023/03/16 12:35:21;;;;;;;12.95;4.10;;;20.00;58.20;;;;;;4719942;29;94961;-83
2023/03/16 12:38:04;;;;;;;12.95;4.05;;;20.00;58.10;;;;;;4719967;29;94399;-83
2023/03/16 12:40:33;;;;;;;14.13;4.15;;;20.00;58.30;;;;;;4738605;29;92494;-83
2023/03/16 12:43:10;;;;;;;12.82;4.68;;;20.00;58.30;;;;;;4764395;29;92621;-83
2023/03/16 12:45:45;;;;;;;13.20;4.18;;;20.00;58.40;;;;;;4763919;29;93327;-82
2023/03/16 12:48:31;;;;;;;13.38;3.97;;;20.00;58.30;;;;;;4764631;29;96391;-83
2023/03/16 12:50:59;;;;;;;10.32;4.00;;;20.00;58.20;;;;;;4765068;29;92669;-83
2023/03/16 12:53:52;;;;;;;12.43;4.20;;;20.00;58.00;;;;;;4765361;29;91903;-83
2023/03/16 12:56:32;;;;;;;12.57;3.92;;;20.00;58.00;;;;;;4766101;29;92897;-83